20 лет Октября

Карта отелей и гостиниц, располагающихся рядом с аэропортом 20 лет Октября :

20 лет Октября Томская область 59° 46' 9.3" N, 78° 50' 6.36" E
20 лет Октября Томская область 59° 46' 9.3" N, 78° 50' 6.36" E
Код аэродрома ИКАО
HB6D
Код аэродрома RU
ХБ6Д
Координаты
N59.76925° E078.83510°
Превышение над уровнем моря
85
Основная полоса
Курс магнитный
Длина основной ВПП
Ширина основной ВПП
Покрытие основной ВПП
Освещение ВПП
Тип: 
Вертодром
Класс аэродрома: 
Принадлежность: 
ГА
Статус: 
Действующий
Сайт: 
E-mail аэродрома: 
Страна: 
Россия
Регион: 
Томская область
Город: 
Дополнительная информация: 

Найти трансфер

С помощью этой формы Вы можете найти трансфер из аэропорта 20 лет Октября в город, аэропорт или вокзал:

Карта места

Javascript is required to view this map.

Погода в аэропортах:

Авиационная погода в Елизово

Регион: 
Погода METAR: 
UHPP 131200Z 21001MPS 5000 BR BKN022 M00/M00 Q1015 R16R/290155 NOSIG RMK QFE758/1011
Время наблюдения
2021-04-13T12:00:00Z
Температура C
0.0
Точка росы
0.0
Направление ветра
210
Скорость ветра (узлы)
2
Метео видимость
3.11
Явления погоды
BR
Условия полета
MVFR
Аэропорт подробнее: 

Авиационная погода в Полярном

Регион: 
Погода METAR: 
UERP 131200Z 20002MPS 6000 -SHSN BKN017CB OVC100 M03/M04 Q0995 R17/492040 NOSIG RMK QFE702
Время наблюдения
2021-04-13T12:00:00Z
Температура C
-3.0
Точка росы
-4.0
Направление ветра
200
Скорость ветра (узлы)
4
Метео видимость
3.73
Явления погоды
-SHSN
Условия полета
MVFR
Аэропорт подробнее: 

Авиационная погода в Ставрополе

Регион: 
Погода METAR: 
URMT 131200Z 04003MPS 9999 -SHRA SCT020CB 10/08 Q1021 R07/190060 NOSIG RMK QFE726
Время наблюдения
2021-04-13T12:00:00Z
Температура C
10.0
Точка росы
8.0
Направление ветра
40
Скорость ветра (узлы)
6
Метео видимость
6.21
Явления погоды
-SHRA
Условия полета
VFR
Аэропорт подробнее: 

Авиационная погода в Хомутово

Регион: 
Погода METAR: 
UHSS 131200Z 22003MPS 3600 -SHRA BR SCT006 BKN021CB 05/04 Q0995 R19/250255 NOSIG RMK MT OBSC QFE745/0993
Время наблюдения
2021-04-13T12:00:00Z
Температура C
5.0
Точка росы
4.0
Направление ветра
220
Скорость ветра (узлы)
6
Метео видимость
2.24
Явления погоды
-SHRA BR
Условия полета
IFR
Аэропорт подробнее: